DAUO/ELU METAR and TAF weather

Enter ICAO airport designator
Station Type Date Time Source
DAUO METAR 2019/06/19 07:00 UTC NOAA

DAUO 190700Z 12006KT CAVOK 28/10 Q1014


Station Type Date Time Source
DAUO Decoded METAR 2019/06/19 07:00 UTC NOAA

El Oued, Algeria (DAUO) 33-30N 006-07E 63M
Jun 19, 2019 - 03:00 AM EDT / 2019.06.19 0700 UTC
Wind: from the ESE (120 degrees) at 7 MPH (6 KT):0
Visibility: greater than 7 mile(s):0
Temperature: 82 F (28 C)
Dew Point: 50 F (10 C)
Relative Humidity: 32%
Pressure (altimeter): 29.94 in. Hg (1014 hPa)
ob: DAUO 190700Z 12006KT CAVOK 28/10 Q1014
cycle: 7

Station Type Date Time Source
DAUO TAF 2017/11/09 18:03 UTC NOAA

TAF DAUO 091700Z 0918/1009 28010KT 9999 SCT033 SCT100 PROB30
TEMPO 0918/0924 28015G25KT 5000 -TSRA FEW036CB

Example: see airport list